createdAt,value
2022-11-10T00:01:19.529Z,6.38
2022-11-10T00:04:06.229Z,4.15
2022-11-10T00:06:52.929Z,6.13
2022-11-10T00:09:39.696Z,5.88
2022-11-10T00:12:26.247Z,5.72
2022-11-10T00:15:31.664Z,6.43
2022-11-10T00:18:18.354Z,6.05
2022-11-10T00:21:08.396Z,6.22
2022-11-10T00:23:54.950Z,6.07
2022-11-10T00:26:41.503Z,7.70
2022-11-10T00:29:28.203Z,5.68
2022-11-10T00:32:14.869Z,4.97
2022-11-10T00:35:01.319Z,6.05
2022-11-10T00:37:50.992Z,4.72
2022-11-10T00:40:37.453Z,5.22
2022-11-10T00:43:26.780Z,9.27
2022-11-10T00:46:14.172Z,5.25
2022-11-10T00:49:00.622Z,6.38
2022-11-10T00:51:47.407Z,5.55
2022-11-10T00:54:34.090Z,8.82
2022-11-10T00:57:20.532Z,7.70
2022-11-10T01:00:08.668Z,11.10
2022-11-10T01:02:56.057Z,8.25
2022-11-10T01:05:43.820Z,6.18
2022-11-10T01:08:30.400Z,7.20
2022-11-10T01:11:23.906Z,9.25
2022-11-10T01:14:10.599Z,6.95
2022-11-10T01:16:57.270Z,4.53
2022-11-10T01:19:43.856Z,6.57
2022-11-10T01:22:31.357Z,5.53
2022-11-10T01:25:18.295Z,10.55
2022-11-10T01:28:04.857Z,5.72
2022-11-10T01:31:02.086Z,12.10
2022-11-10T01:33:48.778Z,4.38
2022-11-10T01:36:35.209Z,7.38
2022-11-10T01:39:22.024Z,6.03
2022-11-10T01:42:08.695Z,5.82
2022-11-10T01:45:23.251Z,7.65
2022-11-10T01:48:17.591Z,7.43
2022-11-10T01:51:21.665Z,5.43
2022-11-10T01:54:19.884Z,5.18
2022-11-10T01:57:11.229Z,8.60
2022-11-10T01:59:57.803Z,7.93
2022-11-10T02:02:58.277Z,7.95
2022-11-10T02:05:45.206Z,9.60
2022-11-10T02:08:31.777Z,5.90
2022-11-10T02:11:18.802Z,8.52
2022-11-10T02:14:06.575Z,6.78
2022-11-10T02:16:53.489Z,4.70
2022-11-10T02:19:42.100Z,4.53
2022-11-10T02:22:28.653Z,9.90
2022-11-10T02:25:21.832Z,8.15
2022-11-10T02:28:09.112Z,7.27
2022-11-10T02:30:55.904Z,4.43
2022-11-10T02:33:42.476Z,4.57
2022-11-10T02:36:29.027Z,8.00
2022-11-10T02:39:15.724Z,7.72
2022-11-10T02:42:02.393Z,8.52
2022-11-10T02:44:48.847Z,7.10
2022-11-10T02:47:35.639Z,5.93
2022-11-10T02:50:21.979Z,12.05
2022-11-10T02:53:09.375Z,11.02
2022-11-10T02:55:56.182Z,5.88
2022-11-10T02:58:42.621Z,8.90
2022-11-10T03:01:29.460Z,8.77
2022-11-10T03:04:16.227Z,9.05
2022-11-10T03:07:02.699Z,11.52
2022-11-10T03:09:49.235Z,10.00
2022-11-10T03:12:35.667Z,6.17
2022-11-10T03:15:22.718Z,4.70
2022-11-10T03:18:09.278Z,5.67
2022-11-10T03:20:55.953Z,12.35
2022-11-10T03:23:43.244Z,6.50
2022-11-10T03:26:30.155Z,7.00
2022-11-10T03:29:16.978Z,5.83
2022-11-10T03:32:03.524Z,8.67
2022-11-10T03:34:50.218Z,5.63
2022-11-10T03:37:36.766Z,7.07
2022-11-10T03:40:23.343Z,4.97
2022-11-10T03:43:12.667Z,10.10
2022-11-10T03:45:59.335Z,7.50
2022-11-10T03:48:52.946Z,11.23
2022-11-10T03:51:40.143Z,5.10
2022-11-10T03:54:26.718Z,9.53
2022-11-10T03:57:13.386Z,9.80
2022-11-10T04:00:00.205Z,7.53
2022-11-10T04:02:46.648Z,4.17
2022-11-10T04:05:52.034Z,6.33
2022-11-10T04:09:11.250Z,9.13
2022-11-10T04:12:19.484Z,5.70
2022-11-10T04:15:30.443Z,6.47
2022-11-10T04:18:26.726Z,5.80
2022-11-10T04:21:13.168Z,6.93
2022-11-10T04:23:59.624Z,7.47
2022-11-10T04:26:47.621Z,12.20
2022-11-10T04:29:34.547Z,7.07
2022-11-10T04:32:21.218Z,7.37
2022-11-10T04:35:08.393Z,7.43
2022-11-10T04:37:54.704Z,12.13
2022-11-10T04:40:41.280Z,4.83
2022-11-10T04:43:28.797Z,9.53
2022-11-10T04:46:30.716Z,7.70
2022-11-10T04:49:17.517Z,9.30
2022-11-10T04:52:04.299Z,10.50
2022-11-10T04:54:50.545Z,7.80
2022-11-10T04:57:37.101Z,6.60
2022-11-10T05:00:24.260Z,7.33
2022-11-10T05:03:12.865Z,9.73
2022-11-10T05:05:59.176Z,10.57
2022-11-10T05:08:46.709Z,11.00
2022-11-10T05:11:33.377Z,8.30
2022-11-10T05:14:20.071Z,11.47
2022-11-10T05:17:06.983Z,8.17
2022-11-10T05:19:53.677Z,8.90
2022-11-10T05:22:41.442Z,5.27
2022-11-10T05:25:30.523Z,6.97
2022-11-10T05:28:17.208Z,10.23
2022-11-10T05:31:04.237Z,7.70
2022-11-10T05:33:50.934Z,8.60
2022-11-10T05:36:37.362Z,8.63
2022-11-10T05:39:23.935Z,12.20
2022-11-10T05:42:10.506Z,8.60
2022-11-10T05:44:57.187Z,8.90
2022-11-10T05:47:43.752Z,5.10
2022-11-10T05:50:30.421Z,10.93
2022-11-10T05:53:16.873Z,9.27
2022-11-10T05:56:03.300Z,7.63
2022-11-10T05:58:49.877Z,7.77
2022-11-10T06:01:36.426Z,10.13
2022-11-10T06:04:23.361Z,7.33
2022-11-10T06:07:10.205Z,4.40
2022-11-10T06:09:56.956Z,5.87
2022-11-10T06:12:43.280Z,9.50
2022-11-10T06:15:30.336Z,12.67
2022-11-10T06:18:16.895Z,8.97
2022-11-10T06:21:03.329Z,10.80
2022-11-10T06:23:50.378Z,7.33
2022-11-10T06:26:36.931Z,10.27
2022-11-10T06:29:26.811Z,6.10
2022-11-10T06:32:13.296Z,7.90
2022-11-10T06:35:00.855Z,3.97
2022-11-10T06:38:04.060Z,3.67
2022-11-10T06:40:50.389Z,11.87
2022-11-10T06:43:37.083Z,8.67
2022-11-10T06:46:23.748Z,5.93
2022-11-10T06:49:10.325Z,5.60
2022-11-10T06:51:56.756Z,7.13
2022-11-10T06:54:43.685Z,4.43
2022-11-10T06:57:30.241Z,7.50
2022-11-10T07:00:18.004Z,5.67
2022-11-10T07:03:07.216Z,6.63
2022-11-10T07:05:53.989Z,6.97
2022-11-10T07:08:40.464Z,3.73
2022-11-10T07:11:27.028Z,10.03
2022-11-10T07:14:13.695Z,6.30
2022-11-10T07:17:00.873Z,6.03
2022-11-10T07:19:47.437Z,6.77
2022-11-10T07:22:33.996Z,5.20
2022-11-10T07:25:20.553Z,5.77
2022-11-10T07:28:12.391Z,4.23
2022-11-10T07:31:03.058Z,5.50
2022-11-10T07:33:54.370Z,3.37
2022-11-10T07:36:41.077Z,4.40
2022-11-10T07:39:27.646Z,3.60
2022-11-10T07:42:15.522Z,2.93
2022-11-10T07:45:02.342Z,2.90
2022-11-10T07:47:48.777Z,5.17
2022-11-10T07:50:35.449Z,7.37
2022-11-10T07:53:22.691Z,4.50
2022-11-10T07:56:09.667Z,3.50
2022-11-10T07:58:56.112Z,2.90
2022-11-10T08:01:42.689Z,4.93
2022-11-10T08:04:29.480Z,3.23
2022-11-10T08:07:15.892Z,5.00
2022-11-10T08:10:02.608Z,2.30
2022-11-10T08:13:00.802Z,3.83
2022-11-10T08:15:47.491Z,5.70
2022-11-10T08:18:35.718Z,7.30
2022-11-10T08:21:22.279Z,6.70
2022-11-10T08:24:09.920Z,4.07
2022-11-10T08:26:57.086Z,4.33
2022-11-10T08:29:43.900Z,7.87
2022-11-10T08:32:30.217Z,6.90
2022-11-10T08:35:17.272Z,5.70
2022-11-10T08:38:16.785Z,6.10
2022-11-10T08:41:03.939Z,6.93
2022-11-10T08:43:50.754Z,6.47
2022-11-10T08:46:37.196Z,2.70
2022-11-10T08:49:23.881Z,9.23
2022-11-10T08:52:11.270Z,7.07
2022-11-10T08:54:57.724Z,4.77
2022-11-10T08:57:44.286Z,4.37
2022-11-10T09:00:32.760Z,3.17
2022-11-10T09:03:26.301Z,5.17
2022-11-10T09:06:12.963Z,3.80
2022-11-10T09:08:59.766Z,5.45
2022-11-10T09:11:46.089Z,6.63
2022-11-10T09:14:33.507Z,5.50
2022-11-10T09:17:20.317Z,6.60
2022-11-10T09:20:09.315Z,2.05
2022-11-10T09:22:56.196Z,4.13
2022-11-10T09:25:48.629Z,6.43
2022-11-10T09:28:35.082Z,6.63
2022-11-10T09:31:21.749Z,4.47
2022-11-10T09:34:08.447Z,2.58
2022-11-10T09:36:54.753Z,3.03
2022-11-10T09:39:41.448Z,7.28
2022-11-10T09:42:34.741Z,6.43
2022-11-10T09:45:38.680Z,2.75
2022-11-10T09:48:39.056Z,7.13
2022-11-10T09:51:38.327Z,4.15
2022-11-10T09:54:52.135Z,6.38
2022-11-10T09:57:38.693Z,3.40
2022-11-10T10:00:25.267Z,4.10
2022-11-10T10:03:20.230Z,4.00
2022-11-10T10:06:13.520Z,7.20
2022-11-10T10:09:28.635Z,4.18
2022-11-10T10:12:33.325Z,4.78
2022-11-10T10:15:37.150Z,5.82
2022-11-10T10:18:23.952Z,3.80
2022-11-10T10:21:33.796Z,3.25
2022-11-10T10:24:23.852Z,5.05
2022-11-10T10:27:20.621Z,4.20
2022-11-10T10:30:20.980Z,3.97
2022-11-10T10:33:20.739Z,3.10
2022-11-10T10:36:17.971Z,2.47
2022-11-10T10:39:18.222Z,2.90
2022-11-10T10:42:16.416Z,2.95
2022-11-10T10:45:21.885Z,4.88
2022-11-10T10:48:31.435Z,4.63
2022-11-10T10:51:31.667Z,3.30
2022-11-10T10:54:29.038Z,3.90
2022-11-10T10:57:29.399Z,5.78
2022-11-10T11:00:23.495Z,3.75
2022-11-10T11:03:41.397Z,3.75
2022-11-10T11:06:33.702Z,6.78
2022-11-10T11:09:26.055Z,3.70
2022-11-10T11:12:18.136Z,1.10
2022-11-10T11:15:26.889Z,3.65
2022-11-10T11:18:17.430Z,2.60
2022-11-10T11:21:35.056Z,3.83
2022-11-10T11:24:57.991Z,2.75
2022-11-10T11:28:15.621Z,4.78
2022-11-10T11:31:28.474Z,2.80
2022-11-10T11:34:28.107Z,4.07
2022-11-10T11:37:30.773Z,2.83
2022-11-10T11:40:48.032Z,4.70
2022-11-10T11:44:10.007Z,3.15
2022-11-10T11:47:37.358Z,2.58
2022-11-10T11:50:39.642Z,5.03
2022-11-10T11:53:32.084Z,1.92
2022-11-10T11:56:35.328Z,3.38
2022-11-10T11:59:46.988Z,3.20
2022-11-10T12:03:21.055Z,3.22
2022-11-10T12:06:26.111Z,5.68
2022-11-10T12:09:34.390Z,5.38
2022-11-10T12:12:51.795Z,3.88
2022-11-10T12:15:38.346Z,3.25
2022-11-10T12:18:33.804Z,4.88
2022-11-10T12:21:59.239Z,2.58
2022-11-10T12:25:19.394Z,3.15
2022-11-10T12:28:32.839Z,2.65
2022-11-10T12:31:25.160Z,3.55
2022-11-10T12:34:18.823Z,1.73
2022-11-10T12:37:07.898Z,4.03
2022-11-10T12:40:12.569Z,6.13
2022-11-10T12:45:54.698Z,4.93
2022-11-10T12:49:31.071Z,2.85
2022-11-10T12:52:32.158Z,3.40
2022-11-10T12:55:21.353Z,3.53
2022-11-10T12:58:13.082Z,2.83
2022-11-10T13:01:05.335Z,2.10
2022-11-10T13:04:02.044Z,4.88
2022-11-10T13:07:12.845Z,1.88
2022-11-10T13:10:19.092Z,1.70
2022-11-10T13:13:05.781Z,4.18
2022-11-10T13:15:57.976Z,3.25
2022-11-10T13:18:44.423Z,2.55
2022-11-10T13:21:53.418Z,2.88
2022-11-10T13:24:44.399Z,2.70
2022-11-10T13:27:42.854Z,4.63
2022-11-10T13:30:48.876Z,18.30
2022-11-10T13:33:38.441Z,7.95
2022-11-10T13:36:42.264Z,19.98
2022-11-10T13:39:35.076Z,7.85
2022-11-10T13:42:25.356Z,9.57
2022-11-10T13:45:43.608Z,11.30
2022-11-10T13:49:15.725Z,5.75
2022-11-10T13:52:16.269Z,3.47
2022-11-10T13:55:18.884Z,2.15
2022-11-10T13:58:43.126Z,3.75
2022-11-10T14:01:30.625Z,4.40
2022-11-10T14:04:43.581Z,2.97
2022-11-10T14:07:52.862Z,6.32
2022-11-10T14:11:04.630Z,2.88
2022-11-10T14:14:11.103Z,6.40
2022-11-10T14:16:58.385Z,2.85
2022-11-10T14:19:47.585Z,4.13
2022-11-10T14:22:42.189Z,4.18
2022-11-10T14:25:39.682Z,5.60
2022-11-10T14:28:29.611Z,4.70
2022-11-10T14:31:26.253Z,2.58
2022-11-10T14:34:18.320Z,2.42
2022-11-10T14:37:05.602Z,2.10
2022-11-10T14:39:59.263Z,3.85
2022-11-10T14:42:47.859Z,4.15
2022-11-10T14:45:34.532Z,3.65
2022-11-10T14:48:25.052Z,2.83
2022-11-10T14:51:19.194Z,4.97
2022-11-10T14:54:12.818Z,6.60
2022-11-10T14:56:59.516Z,6.88
2022-11-10T14:59:46.319Z,5.60
2022-11-10T15:02:33.063Z,6.53
2022-11-10T15:05:20.048Z,12.52
2022-11-10T15:08:06.712Z,4.07
2022-11-10T15:10:53.653Z,4.57
2022-11-10T15:13:40.680Z,4.47
2022-11-10T15:16:31.813Z,5.53
2022-11-10T15:19:29.075Z,4.40
2022-11-10T15:22:30.987Z,3.25
2022-11-10T15:25:24.143Z,4.72
2022-11-10T15:28:13.849Z,5.07
2022-11-10T15:31:14.309Z,3.42
2022-11-10T15:34:05.070Z,4.57
2022-11-10T15:37:11.549Z,6.45
2022-11-10T15:40:34.004Z,10.20
2022-11-10T15:43:22.017Z,3.10
2022-11-10T15:46:19.841Z,3.45
2022-11-10T15:49:32.571Z,4.55
2022-11-10T15:52:23.567Z,12.93
2022-11-10T15:55:24.520Z,16.30
2022-11-10T15:58:21.740Z,10.43
2022-11-10T16:01:14.256Z,8.48
2022-11-10T16:04:00.766Z,7.40
2022-11-10T16:06:47.876Z,11.35
2022-11-10T16:09:34.512Z,5.47
2022-11-10T16:12:22.871Z,13.75
2022-11-10T16:15:18.555Z,8.90
2022-11-10T16:18:11.955Z,11.88
2022-11-10T16:20:58.518Z,8.55
2022-11-10T16:23:44.949Z,6.45
2022-11-10T16:26:33.564Z,7.50
2022-11-10T16:29:21.071Z,9.50
2022-11-10T16:32:09.211Z,7.50
2022-11-10T16:34:56.718Z,3.42
2022-11-10T16:37:43.670Z,4.28
2022-11-10T16:40:30.085Z,7.47
2022-11-10T16:43:18.058Z,7.13
2022-11-10T16:46:16.663Z,6.72
2022-11-10T16:49:06.331Z,8.15
2022-11-10T16:51:53.257Z,8.52
2022-11-10T16:54:40.192Z,5.87
2022-11-10T16:57:26.758Z,6.57
2022-11-10T17:00:14.142Z,7.25
2022-11-10T17:03:25.914Z,12.07
2022-11-10T17:06:15.361Z,7.18
2022-11-10T17:09:26.152Z,7.00
2022-11-10T17:12:14.787Z,5.57
2022-11-10T17:15:01.564Z,10.45
2022-11-10T17:17:53.653Z,5.32
2022-11-10T17:20:43.563Z,7.60
2022-11-10T17:23:30.603Z,5.95
2022-11-10T17:26:19.930Z,7.10
2022-11-10T17:29:06.490Z,5.22
2022-11-10T17:31:53.192Z,10.63
2022-11-10T17:34:39.858Z,6.90
2022-11-10T17:37:26.657Z,9.87
2022-11-10T17:40:19.357Z,12.70
2022-11-10T17:43:06.035Z,13.70
2022-11-10T17:45:52.970Z,19.13
2022-11-10T17:48:39.390Z,21.93
2022-11-10T17:51:26.193Z,24.57
2022-11-10T17:54:16.115Z,31.30
2022-11-10T17:57:04.668Z,24.37
2022-11-10T17:59:51.761Z,15.50
2022-11-10T18:02:38.220Z,18.23
2022-11-10T18:05:24.647Z,13.50
2022-11-10T18:08:13.865Z,10.30
2022-11-10T18:11:01.501Z,14.07
2022-11-10T18:13:48.177Z,6.43
2022-11-10T18:16:34.632Z,5.30
2022-11-10T18:19:21.299Z,6.57
2022-11-10T18:22:07.995Z,7.70
2022-11-10T18:24:54.426Z,7.27
2022-11-10T18:27:41.359Z,8.77
2022-11-10T18:30:33.748Z,11.50
2022-11-10T18:33:21.811Z,12.90
2022-11-10T18:36:09.091Z,14.60
2022-11-10T18:38:55.518Z,20.90
2022-11-10T18:41:52.412Z,7.23
2022-11-10T18:44:39.087Z,7.83
2022-11-10T18:47:25.540Z,12.10
2022-11-10T18:50:11.969Z,19.80
2022-11-10T18:52:58.543Z,16.10
2022-11-10T18:55:55.176Z,12.50
2022-11-10T18:58:42.589Z,11.97
2022-11-10T19:01:29.599Z,12.07
2022-11-10T19:04:16.301Z,8.23
2022-11-10T19:07:02.916Z,7.13
2022-11-10T19:09:49.443Z,6.83
2022-11-10T19:12:35.762Z,8.20
2022-11-10T19:15:22.316Z,7.20
2022-11-10T19:18:09.013Z,7.00
2022-11-10T19:20:55.439Z,7.50
2022-11-10T19:23:42.734Z,9.23
2022-11-10T19:26:30.015Z,9.73
2022-11-10T19:29:19.100Z,5.90
2022-11-10T19:32:05.537Z,9.10
2022-11-10T19:34:52.212Z,12.53
2022-11-10T19:37:39.135Z,6.93
2022-11-10T19:40:25.697Z,8.73
2022-11-10T19:43:12.398Z,12.63
2022-11-10T19:46:06.273Z,7.97
2022-11-10T19:48:52.606Z,5.35
2022-11-10T19:51:39.398Z,4.20
2022-11-10T19:54:25.964Z,8.50
2022-11-10T19:57:12.521Z,8.23
2022-11-10T19:59:59.209Z,12.87
2022-11-10T20:02:46.001Z,6.93
2022-11-10T20:05:32.440Z,5.17
2022-11-10T20:08:19.020Z,4.50
2022-11-10T20:11:10.488Z,6.10
2022-11-10T20:14:03.813Z,8.33
2022-11-10T20:16:50.592Z,10.40
2022-11-10T20:19:41.044Z,6.13
2022-11-10T20:22:28.147Z,4.90
2022-11-10T20:25:14.837Z,9.63
2022-11-10T20:28:06.088Z,4.10
2022-11-10T20:30:57.563Z,6.23
2022-11-10T20:33:45.561Z,5.13
2022-11-10T20:36:34.067Z,5.10
2022-11-10T20:39:20.836Z,6.53
2022-11-10T20:42:07.276Z,6.10
2022-11-10T20:44:53.839Z,8.70
2022-11-10T20:47:40.690Z,5.87
2022-11-10T20:50:27.565Z,6.27
2022-11-10T20:53:14.018Z,5.00
2022-11-10T20:56:02.125Z,5.77
2022-11-10T20:58:49.533Z,6.90
2022-11-10T21:01:37.704Z,6.23
2022-11-10T21:04:24.699Z,9.10
2022-11-10T21:07:11.699Z,8.57
2022-11-10T21:09:58.424Z,6.17
2022-11-10T21:12:51.237Z,5.60
2022-11-10T21:15:39.983Z,6.23
2022-11-10T21:18:33.722Z,7.53
2022-11-10T21:21:27.996Z,5.95
2022-11-10T21:24:14.517Z,5.78
2022-11-10T21:27:01.089Z,4.97
2022-11-10T21:29:47.779Z,8.07
2022-11-10T21:32:35.940Z,7.23
2022-11-10T21:35:22.567Z,5.87
2022-11-10T21:38:12.743Z,5.87
2022-11-10T21:40:59.533Z,9.53
2022-11-10T21:43:45.978Z,8.93
2022-11-10T21:46:32.676Z,5.93
2022-11-10T21:49:19.387Z,6.73
2022-11-10T21:52:05.932Z,6.53
2022-11-10T21:54:52.591Z,5.37
2022-11-10T21:57:38.920Z,6.87
2022-11-10T22:00:26.912Z,7.03
2022-11-10T22:03:13.603Z,7.67
2022-11-10T22:06:06.049Z,4.87
2022-11-10T22:08:52.481Z,8.03
2022-11-10T22:11:57.895Z,7.53
2022-11-10T22:15:07.846Z,7.80
2022-11-10T22:18:13.379Z,5.70
2022-11-10T22:21:00.070Z,6.97
2022-11-10T22:24:05.113Z,7.87
2022-11-10T22:26:52.033Z,5.50
2022-11-10T22:29:38.941Z,7.53
2022-11-10T22:32:25.755Z,6.77
2022-11-10T22:35:32.115Z,7.53
2022-11-10T22:38:18.680Z,6.80
2022-11-10T22:41:31.280Z,5.47
2022-11-10T22:44:20.316Z,12.53
2022-11-10T22:47:08.855Z,6.07
2022-11-10T22:49:55.639Z,7.63
2022-11-10T22:52:42.335Z,7.67
2022-11-10T22:55:29.383Z,6.83
2022-11-10T22:58:16.166Z,4.07
2022-11-10T23:01:08.789Z,6.67
2022-11-10T23:03:58.784Z,6.47
2022-11-10T23:06:45.624Z,7.70
2022-11-10T23:09:34.777Z,6.77
2022-11-10T23:12:21.355Z,9.90
2022-11-10T23:15:08.901Z,12.20
2022-11-10T23:17:55.676Z,7.23
2022-11-10T23:20:42.121Z,7.43
2022-11-10T23:23:32.087Z,9.43
2022-11-10T23:26:27.728Z,7.07
2022-11-10T23:29:14.519Z,6.33
2022-11-10T23:32:00.972Z,8.17
2022-11-10T23:34:47.413Z,10.00
2022-11-10T23:37:34.095Z,12.83
2022-11-10T23:40:20.526Z,12.57
2022-11-10T23:43:07.102Z,14.60
2022-11-10T23:46:10.318Z,10.27
2022-11-10T23:48:56.657Z,11.53
2022-11-10T23:51:44.198Z,11.00
2022-11-10T23:54:30.861Z,9.37
2022-11-10T23:57:17.551Z,8.40
